createdAt,value
2017-10-23T00:00:30.040Z,31.1
2017-10-23T00:01:29.183Z,31.1
2017-10-23T00:02:30.117Z,31.1
2017-10-23T00:03:29.365Z,31.1
2017-10-23T00:04:29.173Z,31.1
2017-10-23T00:05:29.318Z,31.1
2017-10-23T00:06:29.151Z,31.1
2017-10-23T00:07:29.368Z,31.1
2017-10-23T00:08:30.245Z,31.1
2017-10-23T00:09:30.367Z,31.1
2017-10-23T00:10:30.570Z,31.1
2017-10-23T00:11:30.384Z,31.1
2017-10-23T00:12:29.403Z,31.1
2017-10-23T00:13:30.675Z,31.1
2017-10-23T00:14:30.493Z,31.1
2017-10-23T00:15:29.692Z,31.1
2017-10-23T00:16:30.857Z,31
2017-10-23T00:17:30.860Z,31.1
2017-10-23T00:18:29.857Z,31.1
2017-10-23T00:19:29.731Z,31.1
2017-10-23T00:20:30.924Z,31.1
2017-10-23T00:21:30.061Z,31.1
2017-10-23T00:22:29.902Z,31.1
2017-10-23T00:23:31.284Z,31.1
2017-10-23T00:24:30.234Z,31.1
2017-10-23T00:25:30.087Z,31.1
2017-10-23T00:26:31.166Z,31.1
2017-10-23T00:27:30.176Z,31.1
2017-10-23T00:28:30.472Z,31.1
2017-10-23T00:29:31.600Z,31.1
2017-10-23T00:30:31.650Z,31.1
2017-10-23T00:31:30.394Z,31.1
2017-10-23T00:32:31.539Z,31.1
2017-10-23T00:33:31.582Z,31.1
2017-10-23T00:34:31.840Z,31.1
2017-10-23T00:35:30.777Z,31.1
2017-10-23T00:36:31.982Z,31.1
2017-10-23T00:37:30.778Z,31.1
2017-10-23T00:38:30.814Z,31.1
2017-10-23T00:39:32.214Z,31.1
2017-10-23T00:40:31.178Z,31.1
2017-10-23T00:41:32.149Z,31.1
2017-10-23T00:42:32.248Z,31.1
2017-10-23T00:43:31.205Z,31.1
2017-10-23T00:44:31.349Z,31.1
2017-10-23T00:45:31.467Z,31.1
2017-10-23T00:46:31.315Z,31.1
2017-10-23T00:47:32.466Z,31.1
2017-10-23T00:48:32.738Z,31.1
2017-10-23T00:49:32.796Z,31.1
2017-10-23T00:50:32.860Z,31.1
2017-10-23T00:51:32.634Z,31.1
2017-10-23T00:52:32.733Z,31
2017-10-23T00:53:32.964Z,31.1
2017-10-23T00:54:31.742Z,31.1
2017-10-23T00:55:31.988Z,31.1
2017-10-23T00:59:54.791Z,31.1
2017-10-23T01:00:56.800Z,31.1
2017-10-23T01:01:55.979Z,31.1
2017-10-23T01:02:55.783Z,31.1
2017-10-23T01:03:55.801Z,31.1
2017-10-23T01:04:56.119Z,31.1
2017-10-23T01:05:55.049Z,31.1
2017-10-23T01:06:55.092Z,31.1
2017-10-23T01:07:56.065Z,31.1
2017-10-23T01:08:55.233Z,31.1
2017-10-23T01:09:55.202Z,31.1
2017-10-23T01:10:55.216Z,31.1
2017-10-23T01:11:56.344Z,31.1
2017-10-23T01:12:55.231Z,31.1
2017-10-23T01:13:56.365Z,31.1
2017-10-23T01:14:56.197Z,31.1
2017-10-23T01:15:55.368Z,31.1
2017-10-23T01:16:55.466Z,31.1
2017-10-23T01:17:56.362Z,31.1
2017-10-23T01:18:55.529Z,31.1
2017-10-23T01:19:56.433Z,31.1
2017-10-23T01:20:55.653Z,31.1
2017-10-23T01:21:56.589Z,31.1
2017-10-23T01:22:56.922Z,31.1
2017-10-23T01:23:56.999Z,31.1
2017-10-23T01:24:57.048Z,31.1
2017-10-23T01:25:55.817Z,31.1
2017-10-23T01:26:56.112Z,31.1
2017-10-23T01:27:57.166Z,31.1
2017-10-23T01:28:55.960Z,31.1
2017-10-23T01:29:57.091Z,31.1
2017-10-23T01:30:57.122Z,31.1
2017-10-23T01:31:57.352Z,31.1
2017-10-23T01:32:56.287Z,31.1
2017-10-23T01:33:57.475Z,31.1
2017-10-23T01:34:56.495Z,31.1
2017-10-23T01:35:57.647Z,31.1
2017-10-23T01:36:56.580Z,31.1
2017-10-23T01:37:56.446Z,31.1
2017-10-23T01:38:56.514Z,31.1
2017-10-23T01:39:57.988Z,31.1
2017-10-23T01:40:57.742Z,31.1
2017-10-23T01:41:56.882Z,31.1
2017-10-23T01:42:56.950Z,31.1
2017-10-23T01:43:56.852Z,31.1
2017-10-23T01:44:57.930Z,31.1
2017-10-23T01:45:56.901Z,31.1
2017-10-23T01:46:58.261Z,31.1
2017-10-23T01:47:58.108Z,31.1
2017-10-23T01:48:57.357Z,31
2017-10-23T01:49:58.248Z,31.1
2017-10-23T01:50:57.175Z,31.1
2017-10-23T01:51:58.213Z,31
2017-10-23T01:52:58.522Z,31
2017-10-23T01:53:57.395Z,31
2017-10-23T01:54:57.265Z,31
2017-10-23T01:55:57.307Z,31.1
2017-10-23T01:56:57.596Z,31
2017-10-23T01:57:58.723Z,31.1
2017-10-23T01:58:58.749Z,31.1
2017-10-23T01:59:58.792Z,31
2017-10-23T02:00:57.777Z,31
2017-10-23T02:01:58.733Z,31
2017-10-23T02:02:57.700Z,31.1
2017-10-23T02:03:58.775Z,31
2017-10-23T02:04:59.074Z,31.1
2017-10-23T02:05:57.816Z,31.1
2017-10-23T02:06:59.212Z,31.1
2017-10-23T02:07:59.198Z,31
2017-10-23T02:08:58.170Z,31
2017-10-23T02:09:59.265Z,31
2017-10-23T02:10:59.068Z,31
2017-10-23T02:11:59.346Z,31.1
2017-10-23T02:12:59.366Z,31.1
2017-10-23T02:13:58.286Z,31.1
2017-10-23T02:14:58.157Z,31.1
2017-10-23T02:15:58.224Z,31.1
2017-10-23T02:16:58.325Z,31.1
2017-10-23T02:17:58.368Z,31.1
2017-10-23T02:18:58.627Z,31.1
2017-10-23T02:19:58.483Z,31.1
2017-10-23T02:20:58.723Z,31.1
2017-10-23T02:21:58.636Z,31.1
2017-10-23T02:22:59.740Z,31.1
2017-10-23T02:23:58.722Z,31.1
2017-10-23T02:24:58.927Z,31.1
2017-10-23T02:25:59.860Z,31.1
2017-10-23T02:26:58.778Z,31.1
2017-10-23T02:27:59.056Z,31.1
2017-10-23T02:28:59.934Z,31
2017-10-23T02:30:00.010Z,31.1
2017-10-23T02:31:00.113Z,31.1
2017-10-23T02:32:00.354Z,31
2017-10-23T02:33:00.397Z,31.1
2017-10-23T02:33:59.166Z,31.1
2017-10-23T02:34:59.394Z,31.1
2017-10-23T02:35:59.367Z,31.1
2017-10-23T02:37:00.565Z,31.1
2017-10-23T02:37:59.333Z,31.1
2017-10-23T02:38:59.594Z,31.1
2017-10-23T02:39:59.470Z,31.1
2017-10-23T02:41:00.826Z,31.1
2017-10-23T02:42:00.607Z,31.1
2017-10-23T02:42:59.794Z,31.1
2017-10-23T02:43:59.863Z,31.1
2017-10-23T02:44:59.869Z,31.1
2017-10-23T02:45:59.915Z,31.1
2017-10-23T02:46:59.923Z,31.1
2017-10-23T02:48:01.018Z,31.1
2017-10-23T02:48:59.793Z,31.1
2017-10-23T02:50:01.064Z,31.1
2017-10-23T02:51:01.156Z,31.1
2017-10-23T02:52:00.992Z,31
2017-10-23T02:52:59.950Z,31
2017-10-23T02:54:01.131Z,31.1
2017-10-23T02:55:01.354Z,31
2017-10-23T02:56:01.171Z,31
2017-10-23T02:57:00.415Z,31
2017-10-23T02:58:01.394Z,31.1
2017-10-23T02:59:01.678Z,31.1
2017-10-23T03:00:01.705Z,31.1
2017-10-23T03:01:01.555Z,31
2017-10-23T03:02:00.709Z,31.1
2017-10-23T03:03:01.842Z,31.1
2017-10-23T03:04:00.779Z,31.1
2017-10-23T03:05:00.636Z,31.1
2017-10-23T03:06:01.771Z,31.1
2017-10-23T03:07:00.736Z,31.1
2017-10-23T03:08:01.875Z,31.1
2017-10-23T03:09:02.184Z,31.1
2017-10-23T03:10:02.146Z,31.1
2017-10-23T03:11:01.988Z,31.1
2017-10-23T03:12:02.043Z,31.1
2017-10-23T03:13:02.279Z,31.1
2017-10-23T03:14:01.043Z,31.1
2017-10-23T03:15:01.319Z,31.1
2017-10-23T03:16:01.211Z,31.1
2017-10-23T03:17:02.326Z,31.1
2017-10-23T03:18:01.490Z,31.1
2017-10-23T03:19:02.340Z,31.1
2017-10-23T03:20:02.348Z,31.1
2017-10-23T03:21:01.570Z,31.1
2017-10-23T03:22:01.665Z,31.1
2017-10-23T03:23:02.573Z,31.1
2017-10-23T03:24:02.580Z,31.1
2017-10-23T03:25:01.705Z,31.1
2017-10-23T03:26:01.747Z,31.1
2017-10-23T03:27:02.873Z,31.1
2017-10-23T03:28:02.752Z,31.1
2017-10-23T03:29:01.994Z,31.1
2017-10-23T03:30:02.956Z,31.1
2017-10-23T03:31:01.898Z,31
2017-10-23T03:32:03.234Z,31.1
2017-10-23T03:33:02.034Z,31.1
2017-10-23T03:34:03.424Z,31.1
2017-10-23T03:35:02.350Z,31.1
2017-10-23T03:36:02.220Z,31.1
2017-10-23T03:37:02.524Z,31.1
2017-10-23T03:38:03.414Z,31.1
2017-10-23T03:39:02.393Z,31.1
2017-10-23T03:40:03.767Z,31.1
2017-10-23T03:41:02.508Z,31.1
2017-10-23T03:42:02.800Z,31.1
2017-10-23T03:43:02.592Z,31.1
2017-10-23T03:44:03.755Z,31.1
2017-10-23T03:45:02.897Z,31.1
2017-10-23T03:46:02.828Z,31.1
2017-10-23T03:47:03.882Z,31.1
2017-10-23T03:48:02.880Z,31.1
2017-10-23T03:49:04.172Z,31
2017-10-23T03:50:02.943Z,31.1
2017-10-23T03:51:03.137Z,31.1
2017-10-23T03:52:04.029Z,31.1
2017-10-23T03:53:03.188Z,31.1
2017-10-23T03:54:04.071Z,31.1
2017-10-23T03:55:04.346Z,31.1
2017-10-23T03:56:04.181Z,31.1
2017-10-23T03:57:03.129Z,31.1
2017-10-23T03:58:03.195Z,31.1
2017-10-23T03:59:04.503Z,31.1
2017-10-23T04:00:03.249Z,31.1
2017-10-23T04:01:03.253Z,31.1
2017-10-23T04:02:03.333Z,31.1
2017-10-23T04:03:03.424Z,31.1
2017-10-23T04:04:03.472Z,31.1
2017-10-23T04:05:03.564Z,31.2
2017-10-23T04:06:04.959Z,31.2
2017-10-23T04:07:04.985Z,31.2
2017-10-23T04:08:03.983Z,31.2
2017-10-23T04:09:04.882Z,31.2
2017-10-23T04:10:04.949Z,31.3
2017-10-23T04:11:04.069Z,31.3
2017-10-23T04:12:03.958Z,31.3
2017-10-23T04:13:04.217Z,31.4
2017-10-23T04:14:04.265Z,31.4
2017-10-23T04:15:04.366Z,31.4
2017-10-23T04:16:05.542Z,31.4
2017-10-23T04:17:05.563Z,31.4
2017-10-23T04:18:04.392Z,31.4
2017-10-23T04:19:05.678Z,31.5
2017-10-23T04:20:04.485Z,31.5
2017-10-23T04:21:04.676Z,31.5
2017-10-23T04:22:04.523Z,31.6
2017-10-23T04:23:05.581Z,31.6
2017-10-23T04:24:05.861Z,31.6
2017-10-23T04:25:04.629Z,31.6
2017-10-23T04:26:05.185Z,31.6
2017-10-23T04:27:05.823Z,31.6
2017-10-23T04:28:04.988Z,31.6
2017-10-23T04:29:05.048Z,31.7
2017-10-23T04:30:06.014Z,31.8
2017-10-23T04:31:06.258Z,32
2017-10-23T04:32:06.303Z,32.2
2017-10-23T04:33:06.327Z,32.4
2017-10-23T04:34:04.997Z,32.7
2017-10-23T04:35:05.097Z,32.9
2017-10-23T04:36:05.192Z,33.1
2017-10-23T04:37:06.567Z,33.3
2017-10-23T04:38:05.521Z,33.5
2017-10-23T04:39:06.470Z,33.6
2017-10-23T04:40:05.512Z,33.7
2017-10-23T04:41:06.881Z,33.8
2017-10-23T04:42:06.759Z,33.9
2017-10-23T04:43:05.507Z,33.9
2017-10-23T04:44:06.597Z,33.9
2017-10-23T04:45:05.739Z,33.9
2017-10-23T04:46:05.654Z,34
2017-10-23T04:47:05.653Z,34
2017-10-23T04:48:05.868Z,34.1
2017-10-23T04:49:05.723Z,34.1
2017-10-23T04:50:06.022Z,34.1
2017-10-23T04:51:07.138Z,34.1
2017-10-23T04:52:05.886Z,34.1
2017-10-23T04:53:07.277Z,34.2
2017-10-23T04:54:07.384Z,34.1
2017-10-23T04:55:07.400Z,34.2
2017-10-23T04:56:06.104Z,34.2
2017-10-23T04:57:07.405Z,34.2
2017-10-23T04:58:06.350Z,34.2
2017-10-23T04:59:06.414Z,34.2
2017-10-23T05:00:07.382Z,34.2
2017-10-23T05:01:06.398Z,34.3
2017-10-23T05:02:06.669Z,34.3
2017-10-23T05:03:06.491Z,34.3
2017-10-23T05:04:07.570Z,34.3
2017-10-23T05:05:06.534Z,34.3
2017-10-23T05:06:07.869Z,34.3
2017-10-23T05:07:07.597Z,34.3
2017-10-23T05:08:07.727Z,34.3
2017-10-23T05:09:06.897Z,34.3
2017-10-23T05:10:06.885Z,34.3
2017-10-23T05:11:07.861Z,34.3
2017-10-23T05:12:06.853Z,34.3
2017-10-23T05:13:06.905Z,34.3
2017-10-23T05:14:08.204Z,34.3
2017-10-23T05:15:08.315Z,34.3
2017-10-23T05:16:08.322Z,34.3
2017-10-23T05:17:08.383Z,34.3
2017-10-23T05:18:08.215Z,34.3
2017-10-23T05:19:07.395Z,34.2
2017-10-23T05:20:07.419Z,34.2
2017-10-23T05:21:07.304Z,34.2
2017-10-23T05:22:08.363Z,34.2
2017-10-23T05:23:08.747Z,34.2
2017-10-23T05:24:08.658Z,34.2
2017-10-23T05:25:07.450Z,34.2
2017-10-23T05:26:08.492Z,34.2
2017-10-23T05:27:07.655Z,34.2
2017-10-23T05:28:07.506Z,34.1
2017-10-23T05:29:07.558Z,34.1
2017-10-23T05:30:07.576Z,34.1
2017-10-23T05:31:08.920Z,34.1
2017-10-23T05:32:08.737Z,34
2017-10-23T05:33:09.056Z,34
2017-10-23T05:34:08.905Z,34
2017-10-23T05:35:08.036Z,34.1
2017-10-23T05:36:09.233Z,34
2017-10-23T05:37:08.026Z,34
2017-10-23T05:38:09.375Z,33.9
2017-10-23T05:39:08.341Z,33.8
2017-10-23T05:40:08.199Z,33.7
2017-10-23T05:41:09.674Z,33.6
2017-10-23T05:42:08.718Z,33.5
2017-10-23T05:43:08.509Z,33.4
2017-10-23T05:44:08.506Z,33.3
2017-10-23T05:45:10.040Z,33.2
2017-10-23T05:46:09.713Z,33.2
2017-10-23T05:47:09.998Z,33.1
2017-10-23T05:48:10.096Z,33.1
2017-10-23T05:49:08.830Z,33
2017-10-23T05:50:08.878Z,33
2017-10-23T05:51:10.080Z,32.9
2017-10-23T05:52:09.149Z,32.9
2017-10-23T05:53:10.352Z,32.9
2017-10-23T05:54:10.393Z,32.8
2017-10-23T05:55:09.238Z,32.8
2017-10-23T05:56:10.576Z,32.8
2017-10-23T05:57:09.344Z,32.8
2017-10-23T05:58:10.432Z,32.7
2017-10-23T05:59:10.737Z,32.7
2017-10-23T06:00:09.524Z,32.7
2017-10-23T06:01:09.559Z,32.7
2017-10-23T06:02:10.872Z,32.6
2017-10-23T06:03:09.847Z,32.6
2017-10-23T06:04:10.739Z,32.6
2017-10-23T06:05:11.124Z,32.5
2017-10-23T06:06:09.934Z,32.5
2017-10-23T06:07:09.809Z,32.5
2017-10-23T06:08:10.894Z,32.5
2017-10-23T06:09:09.903Z,32.5
2017-10-23T06:10:09.950Z,32.5
2017-10-23T06:11:11.010Z,32.4
2017-10-23T06:12:10.147Z,32.4
2017-10-23T06:13:10.055Z,32.4
2017-10-23T06:14:11.494Z,32.4
2017-10-23T06:15:11.611Z,32.4
2017-10-23T06:16:10.216Z,32.4
2017-10-23T06:17:10.836Z,32.4
2017-10-23T06:18:10.562Z,32.4
2017-10-23T06:19:11.693Z,32.3
2017-10-23T06:20:10.572Z,32.3
2017-10-23T06:21:11.523Z,32.3
2017-10-23T06:22:11.779Z,32.3
2017-10-23T06:23:11.783Z,32.3
2017-10-23T06:24:10.518Z,32.3
2017-10-23T06:25:10.829Z,32.2
2017-10-23T06:26:10.691Z,32.2
2017-10-23T06:27:11.758Z,32.2
2017-10-23T06:28:11.854Z,32.2
2017-10-23T06:29:11.889Z,32.2
2017-10-23T06:30:10.967Z,32.3
2017-10-23T06:31:11.212Z,32.6
2017-10-23T06:32:11.079Z,32.6
2017-10-23T06:33:12.137Z,32.7
2017-10-23T06:34:11.293Z,32.8
2017-10-23T06:35:11.111Z,32.9
2017-10-23T06:36:12.447Z,33
2017-10-23T06:37:12.257Z,33.1
2017-10-23T06:38:12.545Z,33.1
2017-10-23T06:39:11.327Z,33.2
2017-10-23T06:40:12.649Z,33.2
2017-10-23T06:41:12.690Z,33.2
2017-10-23T06:42:12.553Z,33.3
2017-10-23T06:43:12.578Z,33.3
2017-10-23T06:44:11.770Z,33.3
2017-10-23T06:45:11.825Z,33.4
2017-10-23T06:46:11.846Z,33.4
2017-10-23T06:47:11.875Z,33.4
2017-10-23T06:48:11.773Z,33.5
2017-10-23T06:49:12.929Z,33.5
2017-10-23T06:50:12.956Z,33.5
2017-10-23T06:51:13.265Z,33.5
2017-10-23T06:52:12.227Z,33.6
2017-10-23T06:53:13.589Z,33.6
2017-10-23T06:54:13.196Z,33.6
2017-10-23T06:55:12.300Z,33.6
2017-10-23T06:56:12.162Z,33.7
2017-10-23T06:57:13.540Z,33.7
2017-10-23T06:58:13.576Z,33.7
2017-10-23T06:59:12.346Z,33.8
2017-10-23T07:00:12.488Z,33.8
2017-10-23T07:01:13.757Z,33.8
2017-10-23T07:02:13.772Z,33.8
2017-10-23T07:03:12.720Z,33.8
2017-10-23T07:04:13.563Z,33.8
2017-10-23T07:05:12.703Z,33.8
2017-10-23T07:06:13.083Z,33.8
2017-10-23T07:07:13.509Z,33.9
2017-10-23T07:08:13.977Z,33.9
2017-10-23T07:09:14.220Z,33.9
2017-10-23T07:10:13.143Z,33.9
2017-10-23T07:11:12.964Z,33.9
2017-10-23T07:12:13.334Z,33.9
2017-10-23T07:13:14.356Z,33.9
2017-10-23T07:14:14.579Z,34
2017-10-23T07:15:13.587Z,34
2017-10-23T07:16:14.327Z,34.1
2017-10-23T07:17:13.281Z,34
2017-10-23T07:18:13.501Z,34
2017-10-23T07:19:13.611Z,34.1
2017-10-23T07:20:14.638Z,34.1
2017-10-23T07:21:14.263Z,34.1
2017-10-23T07:22:14.844Z,34.1
2017-10-23T07:23:13.899Z,34.1
2017-10-23T07:24:15.429Z,34.1
2017-10-23T07:25:15.284Z,34.1
2017-10-23T07:26:14.256Z,34.1
2017-10-23T07:27:15.230Z,34.1
2017-10-23T07:28:15.529Z,34.1
2017-10-23T07:29:15.297Z,34.1
2017-10-23T07:30:15.034Z,34
2017-10-23T07:31:15.093Z,33.9
2017-10-23T07:32:14.257Z,33.9
2017-10-23T07:33:15.188Z,33.8
2017-10-23T07:34:15.249Z,33.8
2017-10-23T07:35:14.424Z,33.7
2017-10-23T07:36:14.426Z,33.6
2017-10-23T07:37:14.540Z,33.6
2017-10-23T07:38:14.595Z,33.5
2017-10-23T07:39:14.390Z,33.5
2017-10-23T07:40:14.612Z,33.3
2017-10-23T07:41:15.729Z,33
2017-10-23T07:42:14.602Z,32.7
2017-10-23T07:43:14.757Z,32.4
2017-10-23T07:44:14.569Z,32.1
2017-10-23T07:45:16.152Z,31.9
2017-10-23T07:46:14.901Z,31.8
2017-10-23T07:47:14.881Z,31.8
2017-10-23T07:48:15.577Z,31.8
2017-10-23T07:49:15.982Z,31.9
2017-10-23T07:50:14.885Z,31.9
2017-10-23T07:51:16.020Z,31.9
2017-10-23T07:52:15.837Z,31.8
2017-10-23T07:53:16.172Z,31.8
2017-10-23T07:54:16.369Z,31.8
2017-10-23T07:55:16.339Z,31.8
2017-10-23T07:56:15.069Z,31.7
2017-10-23T07:57:15.266Z,31.7
2017-10-23T07:58:16.141Z,31.7
2017-10-23T07:59:15.095Z,31.6
2017-10-23T08:00:16.451Z,31.5
2017-10-23T08:01:15.500Z,31.5
2017-10-23T08:02:16.513Z,31.4
2017-10-23T08:03:16.684Z,31.4
2017-10-23T08:04:17.386Z,31.4
2017-10-23T08:05:16.548Z,31.3
2017-10-23T08:06:16.197Z,31.3
2017-10-23T08:07:15.961Z,31.3
2017-10-23T08:08:17.400Z,31.3
2017-10-23T08:09:16.043Z,31.3
2017-10-23T08:10:16.916Z,31.2
2017-10-23T08:11:16.405Z,31.2
2017-10-23T08:12:16.182Z,31.2
2017-10-23T08:13:17.250Z,31.2
2017-10-23T08:14:16.930Z,31.2
2017-10-23T08:15:17.224Z,31.2
2017-10-23T08:16:16.450Z,31.2
2017-10-23T08:17:17.300Z,31.1
2017-10-23T08:18:16.007Z,31.1
2017-10-23T08:19:17.439Z,31.1
2017-10-23T08:20:16.349Z,31.1
2017-10-23T08:21:16.362Z,31.1
2017-10-23T08:22:16.819Z,31.1
2017-10-23T08:23:16.310Z,31.1
2017-10-23T08:24:17.473Z,31.1
2017-10-23T08:25:16.592Z,31.1
2017-10-23T08:26:17.550Z,31.1
2017-10-23T08:27:17.613Z,31.1
2017-10-23T08:28:18.043Z,31.1
2017-10-23T08:29:18.115Z,31.1
2017-10-23T08:30:17.968Z,31.1
2017-10-23T08:31:17.750Z,31.1
2017-10-23T08:32:16.959Z,31.1
2017-10-23T08:33:17.845Z,31.1
2017-10-23T08:34:18.049Z,31.1
2017-10-23T08:35:17.900Z,31.1
2017-10-23T08:36:17.122Z,31.1
2017-10-23T08:37:18.247Z,31.1
2017-10-23T08:38:17.045Z,31.1
2017-10-23T08:39:16.983Z,31.1
2017-10-23T08:40:17.325Z,31.1
2017-10-23T08:41:17.174Z,31.1
2017-10-23T08:42:17.658Z,31.1
2017-10-23T08:43:17.176Z,31.1
2017-10-23T08:44:17.463Z,31
2017-10-23T08:45:18.568Z,31
2017-10-23T08:46:17.508Z,31
2017-10-23T08:47:17.517Z,31
2017-10-23T08:48:18.447Z,31
2017-10-23T08:49:18.855Z,31
2017-10-23T08:50:17.439Z,31
2017-10-23T08:51:17.917Z,31
2017-10-23T08:52:18.223Z,31
2017-10-23T08:53:19.429Z,31
2017-10-23T08:54:18.994Z,31
2017-10-23T08:55:19.028Z,31
2017-10-23T08:56:18.848Z,31
2017-10-23T08:57:19.021Z,31
2017-10-23T08:58:17.928Z,31
2017-10-23T08:59:19.367Z,31
2017-10-23T09:00:18.147Z,30.9
2017-10-23T09:01:18.312Z,30.9
2017-10-23T09:02:18.305Z,30.9
2017-10-23T09:03:19.652Z,30.9
2017-10-23T09:04:21.650Z,30.8
2017-10-23T09:05:18.600Z,30.8
2017-10-23T09:06:19.593Z,30.8
2017-10-23T09:07:18.428Z,30.8
2017-10-23T09:08:19.584Z,30.7
2017-10-23T09:09:19.588Z,30.7
2017-10-23T09:10:18.711Z,30.7
2017-10-23T09:11:19.972Z,30.6
2017-10-23T09:12:18.851Z,30.6
2017-10-23T09:13:19.940Z,30.6
2017-10-23T09:14:18.762Z,30.5
2017-10-23T09:15:19.064Z,30.4
2017-10-23T09:16:20.194Z,30.3
2017-10-23T09:17:20.224Z,30.1
2017-10-23T09:18:19.570Z,30
2017-10-23T09:19:20.227Z,30
2017-10-23T09:20:19.356Z,29.9
2017-10-23T09:21:20.696Z,30
2017-10-23T09:22:19.641Z,30
2017-10-23T09:23:20.702Z,29.9
2017-10-23T09:24:19.498Z,29.9
2017-10-23T09:25:19.663Z,30
2017-10-23T09:26:20.584Z,29.9
2017-10-23T09:27:20.701Z,30
2017-10-23T09:28:19.601Z,30.1
2017-10-23T09:29:19.834Z,30.3
2017-10-23T09:30:20.741Z,30.4
2017-10-23T09:31:19.920Z,30.6
2017-10-23T09:32:21.124Z,30.8
2017-10-23T09:33:19.800Z,30.7
2017-10-23T09:34:19.987Z,30.8
2017-10-23T09:35:21.119Z,30.9
2017-10-23T09:36:19.864Z,30.9
2017-10-23T09:37:21.262Z,31
2017-10-23T09:38:21.210Z,31.1
2017-10-23T09:39:21.072Z,31.2
2017-10-23T09:40:21.161Z,31.3
2017-10-23T09:41:21.815Z,31.4
2017-10-23T09:42:21.609Z,31.5
2017-10-23T09:43:20.254Z,31.6
2017-10-23T09:44:21.523Z,31.6
2017-10-23T09:45:20.823Z,31.7
2017-10-23T09:46:21.638Z,31.8
2017-10-23T09:47:20.595Z,31.9
2017-10-23T09:48:20.770Z,32
2017-10-23T09:49:21.824Z,32
2017-10-23T09:50:21.620Z,32
2017-10-23T09:51:21.885Z,32
2017-10-23T09:52:22.012Z,32
2017-10-23T09:53:21.794Z,32
2017-10-23T09:54:22.142Z,32
2017-10-23T09:55:22.141Z,32.1
2017-10-23T09:56:20.814Z,32.1
2017-10-23T09:57:20.926Z,32.1
2017-10-23T09:58:22.268Z,32.1
2017-10-23T09:59:21.994Z,32.1
2017-10-23T10:00:21.067Z,32
2017-10-23T10:01:22.123Z,32
2017-10-23T10:02:21.332Z,32
2017-10-23T10:03:22.366Z,31.9
2017-10-23T10:04:21.317Z,31.9
2017-10-23T10:05:21.376Z,31.9
2017-10-23T10:06:22.584Z,31.8
2017-10-23T10:07:22.434Z,31.8
2017-10-23T10:08:22.422Z,31.8
2017-10-23T10:09:24.209Z,31.8
2017-10-23T10:10:21.743Z,31.7
2017-10-23T10:11:21.472Z,31.7
2017-10-23T10:12:22.857Z,31.7
2017-10-23T10:13:21.857Z,31.7
2017-10-23T10:14:21.688Z,31.7
2017-10-23T10:15:23.112Z,31.6
2017-10-23T10:16:21.742Z,31.6
2017-10-23T10:17:23.048Z,31.6
2017-10-23T10:18:22.081Z,31.7
2017-10-23T10:19:23.220Z,31.7
2017-10-23T10:20:22.155Z,31.7
2017-10-23T10:21:22.277Z,31.8
2017-10-23T10:22:22.316Z,31.7
2017-10-23T10:23:22.297Z,31.7
2017-10-23T10:24:23.864Z,31.8
2017-10-23T10:25:22.437Z,31.8
2017-10-23T10:26:23.683Z,31.8
2017-10-23T10:27:22.570Z,31.9
2017-10-23T10:28:22.548Z,31.9
2017-10-23T10:29:22.629Z,31.9
2017-10-23T10:30:22.739Z,32
2017-10-23T10:31:23.885Z,31.9
2017-10-23T10:32:23.858Z,31.9
2017-10-23T10:33:23.716Z,32
2017-10-23T10:34:23.904Z,32
2017-10-23T10:35:22.748Z,32
2017-10-23T10:36:24.030Z,32
2017-10-23T10:37:22.746Z,31.9
2017-10-23T10:38:24.074Z,31.9
2017-10-23T10:39:22.687Z,31.9
2017-10-23T10:40:24.193Z,31.9
2017-10-23T10:41:23.030Z,31.9
2017-10-23T10:42:24.186Z,31.8
2017-10-23T10:43:23.948Z,31.9
2017-10-23T10:44:24.195Z,31.9
2017-10-23T10:45:23.135Z,31.9
2017-10-23T10:46:24.298Z,31.9
2017-10-23T10:47:24.116Z,31.9
2017-10-23T10:48:23.100Z,31.8
2017-10-23T10:49:23.344Z,31.6
2017-10-23T10:50:23.397Z,31.6
2017-10-23T10:51:23.343Z,31.7
2017-10-23T10:52:23.510Z,31.8
2017-10-23T10:53:23.329Z,31.8
2017-10-23T10:54:24.602Z,31.8
2017-10-23T10:55:23.586Z,31.8
2017-10-23T10:56:24.861Z,31.8
2017-10-23T10:57:24.665Z,31.9
2017-10-23T10:58:23.625Z,31.9
2017-10-23T10:59:25.216Z,31.9
2017-10-23T11:00:25.012Z,31.9
2017-10-23T11:01:23.988Z,31.8
2017-10-23T11:02:25.175Z,31.8
2017-10-23T11:03:23.915Z,31.7
2017-10-23T11:04:25.311Z,31.7
2017-10-23T11:05:25.462Z,31.7
2017-10-23T11:06:24.607Z,31.6
2017-10-23T11:07:24.246Z,31.6
2017-10-23T11:08:25.996Z,31.4
2017-10-23T11:09:24.302Z,31.3
2017-10-23T11:10:24.351Z,31.3
2017-10-23T11:11:24.755Z,31.3
2017-10-23T11:12:24.635Z,31.3
2017-10-23T11:13:25.856Z,31.2
2017-10-23T11:14:25.890Z,31.1
2017-10-23T11:15:24.811Z,31.2
2017-10-23T11:16:25.744Z,31.3
2017-10-23T11:17:25.746Z,31.3
2017-10-23T11:18:26.043Z,31.3
2017-10-23T11:19:24.807Z,31.3
2017-10-23T11:20:25.915Z,31.3
2017-10-23T11:21:25.294Z,31.3
2017-10-23T11:22:26.085Z,31.2
2017-10-23T11:23:30.443Z,31.1
2017-10-23T11:24:25.134Z,31.1
2017-10-23T11:25:26.135Z,31.1
2017-10-23T11:26:26.142Z,31.1
2017-10-23T11:27:25.101Z,31.1
2017-10-23T11:28:25.168Z,31.1
2017-10-23T11:29:26.406Z,31.1
2017-10-23T11:30:26.356Z,31.1
2017-10-23T11:31:25.387Z,31.1
2017-10-23T11:32:25.599Z,31
2017-10-23T11:33:26.552Z,31
2017-10-23T11:34:26.840Z,31
2017-10-23T11:35:37.688Z,31
2017-10-23T11:36:26.415Z,30.9
2017-10-23T11:37:26.907Z,30.9
2017-10-23T11:38:25.799Z,31
2017-10-23T11:39:26.951Z,31
2017-10-23T11:40:27.054Z,31
2017-10-23T11:41:25.744Z,31
2017-10-23T11:42:26.144Z,31
2017-10-23T11:43:27.267Z,31
2017-10-23T11:44:26.181Z,31
2017-10-23T11:45:26.318Z,31
2017-10-23T11:46:27.433Z,31
2017-10-23T11:47:27.307Z,31
2017-10-23T11:48:26.309Z,31
2017-10-23T11:49:26.313Z,31
2017-10-23T11:50:27.426Z,31.2
2017-10-23T11:51:27.279Z,31.1
2017-10-23T11:52:27.660Z,31.2
2017-10-23T11:53:26.378Z,31.2
2017-10-23T11:54:27.269Z,31.2
2017-10-23T11:55:27.068Z,31.3
2017-10-23T11:56:27.350Z,31.4
2017-10-23T11:57:27.466Z,31.5
2017-10-23T11:58:26.601Z,31.6
2017-10-23T11:59:27.757Z,31.6
2017-10-23T12:00:27.691Z,31.6
2017-10-23T12:01:26.572Z,31.6
2017-10-23T12:02:27.965Z,31.7
2017-10-23T12:03:27.695Z,31.7
2017-10-23T12:04:27.904Z,31.6
2017-10-23T12:05:27.725Z,31.6
2017-10-23T12:06:26.703Z,31.6
2017-10-23T12:07:28.040Z,31.6
2017-10-23T12:08:27.919Z,31.5
2017-10-23T12:09:28.140Z,31.4
2017-10-23T12:10:28.145Z,31.5
2017-10-23T12:11:28.158Z,31.4
2017-10-23T12:12:26.968Z,31.4
2017-10-23T12:13:27.286Z,31.4
2017-10-23T12:14:28.963Z,31.4
2017-10-23T12:15:28.197Z,31.4
2017-10-23T12:16:28.204Z,31.4
2017-10-23T12:17:28.153Z,31.4
2017-10-23T12:18:27.743Z,31.5
2017-10-23T12:19:28.570Z,31.5
2017-10-23T12:20:27.302Z,31.5
2017-10-23T12:21:28.614Z,31.5
2017-10-23T12:22:28.676Z,31.6
2017-10-23T12:23:27.594Z,31.5
2017-10-23T12:24:28.553Z,31.5
2017-10-23T12:25:27.570Z,31.5
2017-10-23T12:26:27.864Z,31.4
2017-10-23T12:27:27.778Z,31.4
2017-10-23T12:28:29.110Z,31.4
2017-10-23T12:29:27.911Z,31.6
2017-10-23T12:30:29.038Z,31.7
2017-10-23T12:31:27.931Z,31.7
2017-10-23T12:33:28.323Z,31.7
2017-10-23T12:34:29.433Z,31.7
2017-10-23T12:35:29.336Z,31.8
2017-10-23T12:36:28.442Z,31.9
2017-10-23T12:37:28.655Z,31.9
2017-10-23T12:38:29.555Z,32
2017-10-23T12:39:29.711Z,32.1
2017-10-23T12:40:29.688Z,32.2
2017-10-23T12:41:28.545Z,32.2
2017-10-23T12:42:29.841Z,32.4
2017-10-23T12:43:28.652Z,32.4
2017-10-23T12:44:29.725Z,32.4
2017-10-23T12:45:30.066Z,32.5
2017-10-23T12:46:29.051Z,32.5
2017-10-23T12:47:29.973Z,32.6
2017-10-23T12:48:29.150Z,32.6
2017-10-23T12:49:30.086Z,32.7
2017-10-23T12:50:30.111Z,32.7
2017-10-23T12:51:30.227Z,32.7
2017-10-23T12:52:30.191Z,32.6
2017-10-23T12:53:29.366Z,32.7
2017-10-23T12:54:30.486Z,32.8
2017-10-23T12:55:29.348Z,32.8
2017-10-23T12:56:29.636Z,32.9
2017-10-23T12:57:29.328Z,33
2017-10-23T12:58:30.568Z,33.1
2017-10-23T12:59:29.946Z,33.2
2017-10-23T13:00:29.606Z,33.3
2017-10-23T13:01:31.644Z,33.3
2017-10-23T13:02:30.042Z,33.4
2017-10-23T13:03:31.072Z,33.5
2017-10-23T13:04:29.828Z,33.5
2017-10-23T13:05:30.165Z,33.6
2017-10-23T13:06:30.202Z,33.6
2017-10-23T13:07:30.066Z,33.7
2017-10-23T13:08:31.660Z,33.8
2017-10-23T13:09:31.450Z,33.9
2017-10-23T13:10:31.450Z,33.9
2017-10-23T13:11:31.404Z,34
2017-10-23T13:12:31.289Z,34
2017-10-23T13:13:31.654Z,34
2017-10-23T13:14:30.577Z,34
2017-10-23T13:15:32.514Z,34
2017-10-23T13:16:30.515Z,34
2017-10-23T13:17:30.789Z,34
2017-10-23T13:18:30.706Z,34
2017-10-23T13:19:30.683Z,34
2017-10-23T13:20:30.765Z,34
2017-10-23T13:21:30.977Z,34.1
2017-10-23T13:22:32.164Z,34.1
2017-10-23T13:23:31.986Z,34.2
2017-10-23T13:24:32.328Z,34.2
2017-10-23T13:25:31.274Z,34.1
2017-10-23T13:26:32.156Z,34.2
2017-10-23T13:27:32.440Z,34.2
2017-10-23T13:28:32.306Z,34.3
2017-10-23T13:29:31.494Z,34.4
2017-10-23T13:30:31.676Z,34.5